sensor_id;sensor_type;location;lat;lon;timestamp;temperature;humidity
6206;DHT22;3136;48.788;9.772;2023-05-10T00:00:14;13.50;45.90
6206;DHT22;3136;48.788;9.772;2023-05-10T00:02:40;13.60;47.30
6206;DHT22;3136;48.788;9.772;2023-05-10T00:05:06;13.60;46.50
6206;DHT22;3136;48.788;9.772;2023-05-10T00:07:32;13.60;47.30
6206;DHT22;3136;48.788;9.772;2023-05-10T00:09:58;13.60;48.70
6206;DHT22;3136;48.788;9.772;2023-05-10T00:12:23;13.60;49.60
6206;DHT22;3136;48.788;9.772;2023-05-10T00:14:49;13.60;48.40
6206;DHT22;3136;48.788;9.772;2023-05-10T00:17:14;13.50;47.70
6206;DHT22;3136;48.788;9.772;2023-05-10T00:19:40;13.50;48.70
6206;DHT22;3136;48.788;9.772;2023-05-10T00:22:05;13.50;49.80
6206;DHT22;3136;48.788;9.772;2023-05-10T00:24:31;13.50;50.60
6206;DHT22;3136;48.788;9.772;2023-05-10T00:26:56;13.50;50.80
6206;DHT22;3136;48.788;9.772;2023-05-10T00:29:22;13.50;51.00
6206;DHT22;3136;48.788;9.772;2023-05-10T00:31:47;13.50;50.60
6206;DHT22;3136;48.788;9.772;2023-05-10T00:34:13;13.50;50.70
6206;DHT22;3136;48.788;9.772;2023-05-10T00:36:38;13.60;50.40
6206;DHT22;3136;48.788;9.772;2023-05-10T00:39:04;13.60;48.60
6206;DHT22;3136;48.788;9.772;2023-05-10T00:41:30;13.50;47.10
6206;DHT22;3136;48.788;9.772;2023-05-10T00:43:58;13.50;46.60
6206;DHT22;3136;48.788;9.772;2023-05-10T00:46:24;13.40;46.00
6206;DHT22;3136;48.788;9.772;2023-05-10T00:48:51;13.40;47.60
6206;DHT22;3136;48.788;9.772;2023-05-10T00:51:17;13.40;48.10
6206;DHT22;3136;48.788;9.772;2023-05-10T00:53:44;13.40;48.40
6206;DHT22;3136;48.788;9.772;2023-05-10T00:56:10;13.40;47.80
6206;DHT22;3136;48.788;9.772;2023-05-10T00:58:36;13.40;48.20
6206;DHT22;3136;48.788;9.772;2023-05-10T01:01:02;13.40;48.70
6206;DHT22;3136;48.788;9.772;2023-05-10T01:03:28;13.40;48.20
6206;DHT22;3136;48.788;9.772;2023-05-10T01:05:54;13.40;47.20
6206;DHT22;3136;48.788;9.772;2023-05-10T01:08:20;13.50;44.00
6206;DHT22;3136;48.788;9.772;2023-05-10T01:10:46;13.40;20.80
6206;DHT22;3136;48.788;9.772;2023-05-10T01:13:23;13.30;12.20
6206;DHT22;3136;48.788;9.772;2023-05-10T01:15:53;13.20;9.10
6206;DHT22;3136;48.788;9.772;2023-05-10T01:18:20;13.10;9.10
6206;DHT22;3136;48.788;9.772;2023-05-10T01:20:48;13.10;7.20
6206;DHT22;3136;48.788;9.772;2023-05-10T01:23:42;13.10;6.20
6206;DHT22;3136;48.788;9.772;2023-05-10T01:32:26;12.90;1.00
6206;DHT22;3136;48.788;9.772;2023-05-10T01:35:00;12.90;3.20
6206;DHT22;3136;48.788;9.772;2023-05-10T01:40:19;12.90;6.80
6206;DHT22;3136;48.788;9.772;2023-05-10T01:42:55;12.90;10.90
6206;DHT22;3136;48.788;9.772;2023-05-10T01:45:36;12.90;6.80
6206;DHT22;3136;48.788;9.772;2023-05-10T01:48:06;12.80;1.40
6206;DHT22;3136;48.788;9.772;2023-05-10T01:50:35;12.70;2.00
6206;DHT22;3136;48.788;9.772;2023-05-10T01:53:02;12.70;1.00
6206;DHT22;3136;48.788;9.772;2023-05-10T01:55:32;12.70;1.00
6206;DHT22;3136;48.788;9.772;2023-05-10T01:58:10;12.70;1.00
6206;DHT22;3136;48.788;9.772;2023-05-10T02:00:36;12.60;1.00
6206;DHT22;3136;48.788;9.772;2023-05-10T02:03:06;12.70;1.00
6206;DHT22;3136;48.788;9.772;2023-05-10T02:05:33;12.60;1.00
6206;DHT22;3136;48.788;9.772;2023-05-10T02:08:00;12.60;1.00
6206;DHT22;3136;48.788;9.772;2023-05-10T02:10:28;12.60;1.00
6206;DHT22;3136;48.788;9.772;2023-05-10T02:12:54;12.60;1.00
6206;DHT22;3136;48.788;9.772;2023-05-10T02:15:23;12.50;1.00
6206;DHT22;3136;48.788;9.772;2023-05-10T02:17:50;12.40;1.00
6206;DHT22;3136;48.788;9.772;2023-05-10T02:20:18;12.50;1.00
6206;DHT22;3136;48.788;9.772;2023-05-10T02:22:45;12.50;1.00
6206;DHT22;3136;48.788;9.772;2023-05-10T02:25:13;12.40;1.00
6206;DHT22;3136;48.788;9.772;2023-05-10T02:27:41;12.40;1.00
6206;DHT22;3136;48.788;9.772;2023-05-10T02:30:09;12.40;1.00
6206;DHT22;3136;48.788;9.772;2023-05-10T02:32:36;12.40;1.00
6206;DHT22;3136;48.788;9.772;2023-05-10T02:35:03;12.40;1.00
6206;DHT22;3136;48.788;9.772;2023-05-10T02:37:29;12.40;1.00
6206;DHT22;3136;48.788;9.772;2023-05-10T02:39:56;12.40;1.00
6206;DHT22;3136;48.788;9.772;2023-05-10T02:42:27;12.40;1.00
6206;DHT22;3136;48.788;9.772;2023-05-10T02:44:56;12.30;1.00
6206;DHT22;3136;48.788;9.772;2023-05-10T02:47:24;12.50;1.00
6206;DHT22;3136;48.788;9.772;2023-05-10T02:49:50;12.30;1.00
6206;DHT22;3136;48.788;9.772;2023-05-10T02:52:28;12.50;1.00
6206;DHT22;3136;48.788;9.772;2023-05-10T02:54:58;12.30;1.00
6206;DHT22;3136;48.788;9.772;2023-05-10T02:57:28;12.40;1.00
6206;DHT22;3136;48.788;9.772;2023-05-10T02:59:54;12.30;1.00
6206;DHT22;3136;48.788;9.772;2023-05-10T03:02:20;12.40;1.00
6206;DHT22;3136;48.788;9.772;2023-05-10T03:04:46;12.30;1.00
6206;DHT22;3136;48.788;9.772;2023-05-10T03:07:12;12.40;1.00
6206;DHT22;3136;48.788;9.772;2023-05-10T03:09:38;12.30;1.00
6206;DHT22;3136;48.788;9.772;2023-05-10T03:12:09;12.30;1.00
6206;DHT22;3136;48.788;9.772;2023-05-10T03:20:01;12.20;1.00
6206;DHT22;3136;48.788;9.772;2023-05-10T03:22:36;12.20;1.00
6206;DHT22;3136;48.788;9.772;2023-05-10T03:25:05;12.00;1.00
6206;DHT22;3136;48.788;9.772;2023-05-10T03:27:32;12.00;1.00
6206;DHT22;3136;48.788;9.772;2023-05-10T03:29:57;12.00;1.00
6206;DHT22;3136;48.788;9.772;2023-05-10T03:32:24;12.00;5.80
6206;DHT22;3136;48.788;9.772;2023-05-10T03:34:49;12.00;10.80
6206;DHT22;3136;48.788;9.772;2023-05-10T03:37:15;12.10;15.50
6206;DHT22;3136;48.788;9.772;2023-05-10T03:39:40;12.10;17.80
6206;DHT22;3136;48.788;9.772;2023-05-10T03:42:06;12.10;21.70
6206;DHT22;3136;48.788;9.772;2023-05-10T03:44:32;12.10;24.00
6206;DHT22;3136;48.788;9.772;2023-05-10T03:46:58;12.20;24.70
6206;DHT22;3136;48.788;9.772;2023-05-10T03:49:24;12.10;24.40
6206;DHT22;3136;48.788;9.772;2023-05-10T03:51:50;12.20;22.60
6206;DHT22;3136;48.788;9.772;2023-05-10T03:54:15;12.10;22.70
6206;DHT22;3136;48.788;9.772;2023-05-10T03:56:41;12.10;23.90
6206;DHT22;3136;48.788;9.772;2023-05-10T03:59:06;12.10;25.20
6206;DHT22;3136;48.788;9.772;2023-05-10T04:01:34;12.10;26.90
6206;DHT22;3136;48.788;9.772;2023-05-10T04:03:59;12.20;29.40
6206;DHT22;3136;48.788;9.772;2023-05-10T04:06:25;12.10;29.50
6206;DHT22;3136;48.788;9.772;2023-05-10T04:08:51;12.20;31.40
6206;DHT22;3136;48.788;9.772;2023-05-10T04:11:16;12.20;33.60
6206;DHT22;3136;48.788;9.772;2023-05-10T04:13:42;12.20;32.90
6206;DHT22;3136;48.788;9.772;2023-05-10T04:16:08;12.20;31.10
6206;DHT22;3136;48.788;9.772;2023-05-10T04:18:34;12.20;32.90
6206;DHT22;3136;48.788;9.772;2023-05-10T04:21:00;12.30;33.50
6206;DHT22;3136;48.788;9.772;2023-05-10T04:23:26;12.20;34.30
6206;DHT22;3136;48.788;9.772;2023-05-10T04:25:52;12.20;34.70
6206;DHT22;3136;48.788;9.772;2023-05-10T04:28:18;12.30;37.50
6206;DHT22;3136;48.788;9.772;2023-05-10T04:30:43;12.30;40.70
6206;DHT22;3136;48.788;9.772;2023-05-10T04:33:09;12.40;41.90
6206;DHT22;3136;48.788;9.772;2023-05-10T04:35:35;12.40;40.90
6206;DHT22;3136;48.788;9.772;2023-05-10T04:38:00;12.40;42.90
6206;DHT22;3136;48.788;9.772;2023-05-10T04:40:26;12.40;46.20
6206;DHT22;3136;48.788;9.772;2023-05-10T04:42:51;12.60;49.30
6206;DHT22;3136;48.788;9.772;2023-05-10T04:45:17;12.60;50.70
6206;DHT22;3136;48.788;9.772;2023-05-10T04:47:42;12.60;49.80
6206;DHT22;3136;48.788;9.772;2023-05-10T04:50:08;12.80;49.80
6206;DHT22;3136;48.788;9.772;2023-05-10T04:52:34;12.70;48.90
6206;DHT22;3136;48.788;9.772;2023-05-10T04:54:59;12.80;49.70
6206;DHT22;3136;48.788;9.772;2023-05-10T04:57:25;12.90;49.40
6206;DHT22;3136;48.788;9.772;2023-05-10T04:59:51;12.90;51.00
6206;DHT22;3136;48.788;9.772;2023-05-10T05:02:16;13.50;52.20
6206;DHT22;3136;48.788;9.772;2023-05-10T05:04:42;13.00;50.40
6206;DHT22;3136;48.788;9.772;2023-05-10T05:07:07;13.20;50.40
6206;DHT22;3136;48.788;9.772;2023-05-10T05:09:33;13.20;40.80
6206;DHT22;3136;48.788;9.772;2023-05-10T05:11:58;13.20;29.90
6206;DHT22;3136;48.788;9.772;2023-05-10T05:14:24;13.30;17.80
6206;DHT22;3136;48.788;9.772;2023-05-10T05:16:51;13.30;8.20
6206;DHT22;3136;48.788;9.772;2023-05-10T05:19:17;13.30;1.00
6206;DHT22;3136;48.788;9.772;2023-05-10T05:21:42;13.30;1.00
6206;DHT22;3136;48.788;9.772;2023-05-10T05:24:08;13.30;1.00
6206;DHT22;3136;48.788;9.772;2023-05-10T05:26:35;13.40;1.00
6206;DHT22;3136;48.788;9.772;2023-05-10T05:29:00;13.50;1.00
6206;DHT22;3136;48.788;9.772;2023-05-10T05:31:26;13.60;1.00
6206;DHT22;3136;48.788;9.772;2023-05-10T05:33:52;13.60;1.00
6206;DHT22;3136;48.788;9.772;2023-05-10T05:36:17;13.70;1.00
6206;DHT22;3136;48.788;9.772;2023-05-10T05:38:43;13.70;1.00
6206;DHT22;3136;48.788;9.772;2023-05-10T05:41:09;13.70;1.00
6206;DHT22;3136;48.788;9.772;2023-05-10T05:43:34;13.60;1.00
6206;DHT22;3136;48.788;9.772;2023-05-10T05:46:00;13.60;1.00
6206;DHT22;3136;48.788;9.772;2023-05-10T05:48:26;13.60;1.00
6206;DHT22;3136;48.788;9.772;2023-05-10T05:50:55;13.60;1.00
6206;DHT22;3136;48.788;9.772;2023-05-10T05:53:22;13.50;1.00
6206;DHT22;3136;48.788;9.772;2023-05-10T05:55:54;13.50;1.00
6206;DHT22;3136;48.788;9.772;2023-05-10T05:58:20;13.50;1.00
6206;DHT22;3136;48.788;9.772;2023-05-10T06:00:46;13.00;1.00
6206;DHT22;3136;48.788;9.772;2023-05-10T06:03:12;13.50;1.00
6206;DHT22;3136;48.788;9.772;2023-05-10T06:05:37;13.60;1.00
6206;DHT22;3136;48.788;9.772;2023-05-10T06:08:03;13.60;1.00
6206;DHT22;3136;48.788;9.772;2023-05-10T06:10:28;13.60;1.00
6206;DHT22;3136;48.788;9.772;2023-05-10T06:12:55;13.70;1.00
6206;DHT22;3136;48.788;9.772;2023-05-10T06:15:21;13.70;1.00
6206;DHT22;3136;48.788;9.772;2023-05-10T06:17:47;13.80;1.00
6206;DHT22;3136;48.788;9.772;2023-05-10T06:20:14;13.80;1.00
6206;DHT22;3136;48.788;9.772;2023-05-10T06:22:40;13.90;1.00
6206;DHT22;3136;48.788;9.772;2023-05-10T06:25:07;13.80;1.00
6206;DHT22;3136;48.788;9.772;2023-05-10T06:27:32;13.80;1.00
6206;DHT22;3136;48.788;9.772;2023-05-10T06:29:58;13.70;1.00
6206;DHT22;3136;48.788;9.772;2023-05-10T06:32:23;13.70;1.00
6206;DHT22;3136;48.788;9.772;2023-05-10T06:34:49;13.90;1.00
6206;DHT22;3136;48.788;9.772;2023-05-10T06:37:14;14.00;1.00
6206;DHT22;3136;48.788;9.772;2023-05-10T06:39:40;14.00;1.00
6206;DHT22;3136;48.788;9.772;2023-05-10T06:42:05;14.00;99.90
6206;DHT22;3136;48.788;9.772;2023-05-10T06:44:31;13.90;99.90
6206;DHT22;3136;48.788;9.772;2023-05-10T06:46:57;13.90;99.90
6206;DHT22;3136;48.788;9.772;2023-05-10T06:49:22;13.80;99.90
6206;DHT22;3136;48.788;9.772;2023-05-10T06:51:48;13.80;99.90
6206;DHT22;3136;48.788;9.772;2023-05-10T06:54:13;13.70;99.90
6206;DHT22;3136;48.788;9.772;2023-05-10T06:56:39;13.70;1.00
6206;DHT22;3136;48.788;9.772;2023-05-10T06:59:05;13.60;1.00
6206;DHT22;3136;48.788;9.772;2023-05-10T07:01:30;13.60;1.00
6206;DHT22;3136;48.788;9.772;2023-05-10T07:03:56;13.60;1.00
6206;DHT22;3136;48.788;9.772;2023-05-10T07:06:21;13.60;1.00
6206;DHT22;3136;48.788;9.772;2023-05-10T07:08:47;13.50;1.00
6206;DHT22;3136;48.788;9.772;2023-05-10T07:11:13;13.50;1.00
6206;DHT22;3136;48.788;9.772;2023-05-10T07:13:38;13.60;1.00
6206;DHT22;3136;48.788;9.772;2023-05-10T07:16:06;13.50;1.00
6206;DHT22;3136;48.788;9.772;2023-05-10T07:18:33;13.50;1.00
6206;DHT22;3136;48.788;9.772;2023-05-10T07:20:58;13.40;1.00
6206;DHT22;3136;48.788;9.772;2023-05-10T07:23:24;13.40;1.00
6206;DHT22;3136;48.788;9.772;2023-05-10T07:25:51;13.40;1.00
6206;DHT22;3136;48.788;9.772;2023-05-10T07:28:17;13.50;1.00
6206;DHT22;3136;48.788;9.772;2023-05-10T07:30:44;13.50;1.00
6206;DHT22;3136;48.788;9.772;2023-05-10T07:33:10;13.50;1.00
6206;DHT22;3136;48.788;9.772;2023-05-10T07:35:37;13.40;1.00
6206;DHT22;3136;48.788;9.772;2023-05-10T07:38:02;13.40;1.00
6206;DHT22;3136;48.788;9.772;2023-05-10T07:40:28;13.40;1.00
6206;DHT22;3136;48.788;9.772;2023-05-10T07:42:54;13.40;1.00
6206;DHT22;3136;48.788;9.772;2023-05-10T07:45:20;13.50;1.00
6206;DHT22;3136;48.788;9.772;2023-05-10T07:47:45;13.50;1.00
6206;DHT22;3136;48.788;9.772;2023-05-10T07:50:11;13.50;1.00
6206;DHT22;3136;48.788;9.772;2023-05-10T07:52:37;13.60;1.00
6206;DHT22;3136;48.788;9.772;2023-05-10T07:55:02;13.70;1.00
6206;DHT22;3136;48.788;9.772;2023-05-10T07:57:28;13.70;1.00
6206;DHT22;3136;48.788;9.772;2023-05-10T07:59:54;14.30;1.00
6206;DHT22;3136;48.788;9.772;2023-05-10T08:02:19;13.90;1.00
6206;DHT22;3136;48.788;9.772;2023-05-10T08:04:45;14.00;1.00
6206;DHT22;3136;48.788;9.772;2023-05-10T08:07:10;14.10;95.40
6206;DHT22;3136;48.788;9.772;2023-05-10T08:09:36;14.20;99.90
6206;DHT22;3136;48.788;9.772;2023-05-10T08:12:02;14.50;99.90
6206;DHT22;3136;48.788;9.772;2023-05-10T08:14:29;14.60;99.90
6206;DHT22;3136;48.788;9.772;2023-05-10T08:16:54;14.70;1.00
6206;DHT22;3136;48.788;9.772;2023-05-10T08:19:21;16.10;45.20
6206;DHT22;3136;48.788;9.772;2023-05-10T08:21:47;15.00;1.00
6206;DHT22;3136;48.788;9.772;2023-05-10T08:24:12;16.00;1.00
6206;DHT22;3136;48.788;9.772;2023-05-10T08:26:38;15.40;1.00
6206;DHT22;3136;48.788;9.772;2023-05-10T08:29:04;15.50;1.00
6206;DHT22;3136;48.788;9.772;2023-05-10T08:31:30;15.80;1.00
6206;DHT22;3136;48.788;9.772;2023-05-10T08:33:55;15.90;99.90
6206;DHT22;3136;48.788;9.772;2023-05-10T08:36:21;16.10;1.00
6206;DHT22;3136;48.788;9.772;2023-05-10T08:38:50;16.30;99.90
6206;DHT22;3136;48.788;9.772;2023-05-10T08:41:19;16.60;1.00
6206;DHT22;3136;48.788;9.772;2023-05-10T08:43:46;16.40;1.00
6206;DHT22;3136;48.788;9.772;2023-05-10T08:46:16;16.60;1.00
6206;DHT22;3136;48.788;9.772;2023-05-10T08:48:46;18.40;99.90
6206;DHT22;3136;48.788;9.772;2023-05-10T08:51:22;17.70;1.00
6206;DHT22;3136;48.788;9.772;2023-05-10T08:53:49;16.70;1.00
6206;DHT22;3136;48.788;9.772;2023-05-10T08:56:15;16.90;1.00
6206;DHT22;3136;48.788;9.772;2023-05-10T08:58:41;16.80;1.00
6206;DHT22;3136;48.788;9.772;2023-05-10T09:01:07;17.00;1.00
6206;DHT22;3136;48.788;9.772;2023-05-10T09:03:34;17.10;99.90
6206;DHT22;3136;48.788;9.772;2023-05-10T09:06:00;17.30;1.00
6206;DHT22;3136;48.788;9.772;2023-05-10T09:08:26;17.20;21.90
6206;DHT22;3136;48.788;9.772;2023-05-10T09:10:53;16.90;1.00
6206;DHT22;3136;48.788;9.772;2023-05-10T09:13:19;16.90;1.00
6206;DHT22;3136;48.788;9.772;2023-05-10T09:15:46;16.70;99.90
6206;DHT22;3136;48.788;9.772;2023-05-10T09:18:13;16.60;99.90
6206;DHT22;3136;48.788;9.772;2023-05-10T09:20:38;16.70;99.90
6206;DHT22;3136;48.788;9.772;2023-05-10T09:23:04;16.90;99.90
6206;DHT22;3136;48.788;9.772;2023-05-10T09:25:30;17.20;1.00
6206;DHT22;3136;48.788;9.772;2023-05-10T09:27:58;17.00;1.00
6206;DHT22;3136;48.788;9.772;2023-05-10T09:30:29;16.70;99.90
6206;DHT22;3136;48.788;9.772;2023-05-10T09:32:56;16.50;1.00
6206;DHT22;3136;48.788;9.772;2023-05-10T09:35:24;16.20;99.90
6206;DHT22;3136;48.788;9.772;2023-05-10T09:37:53;15.90;99.90
6206;DHT22;3136;48.788;9.772;2023-05-10T09:40:24;15.90;1.00
6206;DHT22;3136;48.788;9.772;2023-05-10T09:45:22;15.80;99.90
6206;DHT22;3136;48.788;9.772;2023-05-10T09:47:48;15.60;1.00
6206;DHT22;3136;48.788;9.772;2023-05-10T09:50:14;15.50;1.00
6206;DHT22;3136;48.788;9.772;2023-05-10T09:52:49;15.40;1.00
6206;DHT22;3136;48.788;9.772;2023-05-10T09:55:17;15.30;99.90
6206;DHT22;3136;48.788;9.772;2023-05-10T09:57:43;15.30;1.00
6206;DHT22;3136;48.788;9.772;2023-05-10T10:00:09;16.70;83.50
6206;DHT22;3136;48.788;9.772;2023-05-10T10:02:35;15.50;1.00
6206;DHT22;3136;48.788;9.772;2023-05-10T10:05:02;16.10;99.90
6206;DHT22;3136;48.788;9.772;2023-05-10T10:07:31;16.10;99.90
6206;DHT22;3136;48.788;9.772;2023-05-10T10:09:57;16.60;1.00
6206;DHT22;3136;48.788;9.772;2023-05-10T10:12:24;17.10;1.00
6206;DHT22;3136;48.788;9.772;2023-05-10T10:14:50;16.90;1.00
6206;DHT22;3136;48.788;9.772;2023-05-10T10:17:17;16.70;99.90
6206;DHT22;3136;48.788;9.772;2023-05-10T10:19:42;16.80;99.90
6206;DHT22;3136;48.788;9.772;2023-05-10T10:22:08;16.70;1.00
6206;DHT22;3136;48.788;9.772;2023-05-10T10:24:37;16.80;41.40
6206;DHT22;3136;48.788;9.772;2023-05-10T10:27:43;16.60;1.00
6206;DHT22;3136;48.788;9.772;2023-05-10T10:30:35;16.40;99.90
6206;DHT22;3136;48.788;9.772;2023-05-10T10:36:10;16.40;99.90
6206;DHT22;3136;48.788;9.772;2023-05-10T10:55:09;16.40;99.90
6206;DHT22;3136;48.788;9.772;2023-05-10T11:00:26;16.30;99.90
6206;DHT22;3136;48.788;9.772;2023-05-10T11:05:38;16.40;99.90
6206;DHT22;3136;48.788;9.772;2023-05-10T11:10:48;16.50;99.90
6206;DHT22;3136;48.788;9.772;2023-05-10T11:13:14;16.60;99.90
6206;DHT22;3136;48.788;9.772;2023-05-10T11:15:40;16.60;1.00
6206;DHT22;3136;48.788;9.772;2023-05-10T11:20:59;16.50;40.80
6206;DHT22;3136;48.788;9.772;2023-05-10T11:23:49;16.30;1.00
6206;DHT22;3136;48.788;9.772;2023-05-10T11:26:15;16.10;99.90
6206;DHT22;3136;48.788;9.772;2023-05-10T11:28:48;16.00;99.90
6206;DHT22;3136;48.788;9.772;2023-05-10T11:31:15;15.80;1.00
6206;DHT22;3136;48.788;9.772;2023-05-10T11:33:55;16.00;10.70
6206;DHT22;3136;48.788;9.772;2023-05-10T11:36:25;15.60;1.00
6206;DHT22;3136;48.788;9.772;2023-05-10T11:38:51;15.50;1.00
6206;DHT22;3136;48.788;9.772;2023-05-10T11:41:18;15.60;99.90
6206;DHT22;3136;48.788;9.772;2023-05-10T11:43:49;15.40;1.00
6206;DHT22;3136;48.788;9.772;2023-05-10T11:46:19;15.40;25.20
6206;DHT22;3136;48.788;9.772;2023-05-10T11:48:50;15.40;1.00
6206;DHT22;3136;48.788;9.772;2023-05-10T11:51:23;15.50;1.00
6206;DHT22;3136;48.788;9.772;2023-05-10T11:53:53;15.60;1.00
6206;DHT22;3136;48.788;9.772;2023-05-10T11:56:18;15.80;99.90
6206;DHT22;3136;48.788;9.772;2023-05-10T11:58:44;16.00;1.00
6206;DHT22;3136;48.788;9.772;2023-05-10T12:01:10;16.70;1.00
6206;DHT22;3136;48.788;9.772;2023-05-10T12:03:36;16.60;1.00
6206;DHT22;3136;48.788;9.772;2023-05-10T12:06:02;17.00;1.00
6206;DHT22;3136;48.788;9.772;2023-05-10T12:08:29;17.10;99.90
6206;DHT22;3136;48.788;9.772;2023-05-10T12:11:07;17.20;99.90
6206;DHT22;3136;48.788;9.772;2023-05-10T12:13:38;17.20;99.90
6206;DHT22;3136;48.788;9.772;2023-05-10T12:16:22;17.20;99.90
6206;DHT22;3136;48.788;9.772;2023-05-10T12:18:52;17.60;99.90
6206;DHT22;3136;48.788;9.772;2023-05-10T12:21:21;17.80;99.90
6206;DHT22;3136;48.788;9.772;2023-05-10T12:23:51;18.00;99.90
6206;DHT22;3136;48.788;9.772;2023-05-10T12:26:17;17.60;99.90
6206;DHT22;3136;48.788;9.772;2023-05-10T12:28:42;17.40;99.90
6206;DHT22;3136;48.788;9.772;2023-05-10T12:31:08;17.20;99.90
6206;DHT22;3136;48.788;9.772;2023-05-10T12:33:38;16.70;99.90
6206;DHT22;3136;48.788;9.772;2023-05-10T12:36:05;16.50;99.90
6206;DHT22;3136;48.788;9.772;2023-05-10T12:38:35;16.30;99.90
6206;DHT22;3136;48.788;9.772;2023-05-10T12:43:30;16.30;99.90
6206;DHT22;3136;48.788;9.772;2023-05-10T12:45:56;15.60;99.90
6206;DHT22;3136;48.788;9.772;2023-05-10T12:48:22;15.40;99.90
6206;DHT22;3136;48.788;9.772;2023-05-10T12:50:48;15.20;1.00
6206;DHT22;3136;48.788;9.772;2023-05-10T12:53:14;15.10;1.00
6206;DHT22;3136;48.788;9.772;2023-05-10T12:55:41;14.90;1.00
6206;DHT22;3136;48.788;9.772;2023-05-10T12:58:07;14.60;99.90
6206;DHT22;3136;48.788;9.772;2023-05-10T13:00:32;14.50;99.90
6206;DHT22;3136;48.788;9.772;2023-05-10T13:02:58;14.30;99.90
6206;DHT22;3136;48.788;9.772;2023-05-10T13:05:23;14.10;99.90
6206;DHT22;3136;48.788;9.772;2023-05-10T13:07:49;13.80;1.00
6206;DHT22;3136;48.788;9.772;2023-05-10T13:10:15;13.50;1.00
6206;DHT22;3136;48.788;9.772;2023-05-10T13:12:41;13.40;90.80
6206;DHT22;3136;48.788;9.772;2023-05-10T13:15:07;13.30;1.00
6206;DHT22;3136;48.788;9.772;2023-05-10T13:17:32;13.20;99.90
6206;DHT22;3136;48.788;9.772;2023-05-10T13:19:58;13.10;1.00
6206;DHT22;3136;48.788;9.772;2023-05-10T13:22:23;13.10;99.90
6206;DHT22;3136;48.788;9.772;2023-05-10T13:24:49;13.20;1.00
6206;DHT22;3136;48.788;9.772;2023-05-10T13:27:15;13.20;99.90
6206;DHT22;3136;48.788;9.772;2023-05-10T13:29:40;13.10;99.90
6206;DHT22;3136;48.788;9.772;2023-05-10T13:32:06;13.00;1.00
6206;DHT22;3136;48.788;9.772;2023-05-10T13:34:31;13.00;99.90
6206;DHT22;3136;48.788;9.772;2023-05-10T13:36:57;13.00;99.90
6206;DHT22;3136;48.788;9.772;2023-05-10T13:39:23;13.00;1.00
6206;DHT22;3136;48.788;9.772;2023-05-10T13:41:48;13.10;1.00
6206;DHT22;3136;48.788;9.772;2023-05-10T13:44:15;13.40;1.00
6206;DHT22;3136;48.788;9.772;2023-05-10T13:46:41;13.30;99.90
6206;DHT22;3136;48.788;9.772;2023-05-10T13:49:08;13.60;99.90
6206;DHT22;3136;48.788;9.772;2023-05-10T13:51:34;13.80;1.00
6206;DHT22;3136;48.788;9.772;2023-05-10T13:54:01;13.90;99.90
6206;DHT22;3136;48.788;9.772;2023-05-10T13:56:27;13.90;1.00
6206;DHT22;3136;48.788;9.772;2023-05-10T13:58:52;14.00;99.90
6206;DHT22;3136;48.788;9.772;2023-05-10T14:01:18;14.20;99.90
6206;DHT22;3136;48.788;9.772;2023-05-10T14:03:43;14.30;17.60
6206;DHT22;3136;48.788;9.772;2023-05-10T14:06:09;14.40;1.00
6206;DHT22;3136;48.788;9.772;2023-05-10T14:08:35;14.30;1.00
6206;DHT22;3136;48.788;9.772;2023-05-10T14:11:01;14.30;99.90
6206;DHT22;3136;48.788;9.772;2023-05-10T14:13:27;14.40;1.00
6206;DHT22;3136;48.788;9.772;2023-05-10T14:15:53;14.60;99.90
6206;DHT22;3136;48.788;9.772;2023-05-10T14:18:19;14.80;99.90
6206;DHT22;3136;48.788;9.772;2023-05-10T14:20:45;14.80;92.20
6206;DHT22;3136;48.788;9.772;2023-05-10T14:23:10;14.80;99.90
6206;DHT22;3136;48.788;9.772;2023-05-10T14:25:36;14.80;87.00
6206;DHT22;3136;48.788;9.772;2023-05-10T14:28:03;14.90;99.90
6206;DHT22;3136;48.788;9.772;2023-05-10T14:30:29;14.90;1.00
6206;DHT22;3136;48.788;9.772;2023-05-10T14:32:54;14.80;1.00
6206;DHT22;3136;48.788;9.772;2023-05-10T14:35:20;14.80;99.90
6206;DHT22;3136;48.788;9.772;2023-05-10T14:37:46;14.90;99.90
6206;DHT22;3136;48.788;9.772;2023-05-10T14:40:12;14.90;1.00
6206;DHT22;3136;48.788;9.772;2023-05-10T14:42:38;15.00;1.00
6206;DHT22;3136;48.788;9.772;2023-05-10T14:45:04;15.10;99.90
6206;DHT22;3136;48.788;9.772;2023-05-10T14:47:29;15.30;1.00
6206;DHT22;3136;48.788;9.772;2023-05-10T14:49:55;15.30;1.00
6206;DHT22;3136;48.788;9.772;2023-05-10T14:52:21;15.60;99.90
6206;DHT22;3136;48.788;9.772;2023-05-10T14:54:46;15.60;1.00
6206;DHT22;3136;48.788;9.772;2023-05-10T14:57:12;16.30;34.60
6206;DHT22;3136;48.788;9.772;2023-05-10T14:59:38;15.60;99.90
6206;DHT22;3136;48.788;9.772;2023-05-10T15:02:03;15.80;1.00
6206;DHT22;3136;48.788;9.772;2023-05-10T15:04:29;15.90;1.00
6206;DHT22;3136;48.788;9.772;2023-05-10T15:06:55;16.00;1.00
6206;DHT22;3136;48.788;9.772;2023-05-10T15:09:24;16.00;1.00
6206;DHT22;3136;48.788;9.772;2023-05-10T15:11:50;16.00;1.00
6206;DHT22;3136;48.788;9.772;2023-05-10T15:14:16;16.00;1.00
6206;DHT22;3136;48.788;9.772;2023-05-10T15:16:41;16.10;1.00
6206;DHT22;3136;48.788;9.772;2023-05-10T15:19:07;16.30;1.00
6206;DHT22;3136;48.788;9.772;2023-05-10T15:21:32;16.20;1.00
6206;DHT22;3136;48.788;9.772;2023-05-10T15:24:06;16.20;1.00
6206;DHT22;3136;48.788;9.772;2023-05-10T15:26:32;16.10;1.00
6206;DHT22;3136;48.788;9.772;2023-05-10T15:28:58;16.10;1.00
6206;DHT22;3136;48.788;9.772;2023-05-10T15:31:23;16.20;1.00
6206;DHT22;3136;48.788;9.772;2023-05-10T15:33:49;16.00;1.00
6206;DHT22;3136;48.788;9.772;2023-05-10T15:36:14;15.90;1.00
6206;DHT22;3136;48.788;9.772;2023-05-10T15:38:43;15.90;1.00
6206;DHT22;3136;48.788;9.772;2023-05-10T15:41:08;15.80;1.00
6206;DHT22;3136;48.788;9.772;2023-05-10T15:43:34;15.80;1.00
6206;DHT22;3136;48.788;9.772;2023-05-10T15:45:59;15.80;1.00
6206;DHT22;3136;48.788;9.772;2023-05-10T15:48:25;15.70;92.60
6206;DHT22;3136;48.788;9.772;2023-05-10T15:50:50;15.80;1.00
6206;DHT22;3136;48.788;9.772;2023-05-10T15:53:16;15.60;1.00
6206;DHT22;3136;48.788;9.772;2023-05-10T15:55:43;15.60;1.00
6206;DHT22;3136;48.788;9.772;2023-05-10T15:58:08;15.60;1.00
6206;DHT22;3136;48.788;9.772;2023-05-10T16:00:34;15.50;1.00
6206;DHT22;3136;48.788;9.772;2023-05-10T16:03:00;15.50;1.00
6206;DHT22;3136;48.788;9.772;2023-05-10T16:05:25;15.40;1.00
6206;DHT22;3136;48.788;9.772;2023-05-10T16:07:54;15.20;1.00
6206;DHT22;3136;48.788;9.772;2023-05-10T16:10:20;15.30;95.70
6206;DHT22;3136;48.788;9.772;2023-05-10T16:12:45;15.20;33.30
6206;DHT22;3136;48.788;9.772;2023-05-10T16:15:11;15.20;1.00
6206;DHT22;3136;48.788;9.772;2023-05-10T16:17:37;15.20;68.40
6206;DHT22;3136;48.788;9.772;2023-05-10T16:20:02;15.10;96.20
6206;DHT22;3136;48.788;9.772;2023-05-10T16:22:28;15.10;99.90
6206;DHT22;3136;48.788;9.772;2023-05-10T16:24:56;15.10;99.90
6206;DHT22;3136;48.788;9.772;2023-05-10T16:27:21;15.10;99.90
6206;DHT22;3136;48.788;9.772;2023-05-10T16:29:47;15.00;99.90
6206;DHT22;3136;48.788;9.772;2023-05-10T16:32:13;15.00;99.90
6206;DHT22;3136;48.788;9.772;2023-05-10T16:34:38;15.00;99.90
6206;DHT22;3136;48.788;9.772;2023-05-10T16:37:04;15.00;1.00
6206;DHT22;3136;48.788;9.772;2023-05-10T16:39:29;15.00;1.00
6206;DHT22;3136;48.788;9.772;2023-05-10T16:41:55;15.10;1.00
6206;DHT22;3136;48.788;9.772;2023-05-10T16:44:21;15.00;1.00
6206;DHT22;3136;48.788;9.772;2023-05-10T16:46:46;15.00;99.90
6206;DHT22;3136;48.788;9.772;2023-05-10T16:49:12;14.80;99.90
6206;DHT22;3136;48.788;9.772;2023-05-10T16:51:38;14.80;1.00
6206;DHT22;3136;48.788;9.772;2023-05-10T16:54:03;15.40;1.00
6206;DHT22;3136;48.788;9.772;2023-05-10T16:56:29;14.80;1.00